createdAt,value
2022-11-29T00:01:05.673Z,52.50
2022-11-29T00:03:32.826Z,51.23
2022-11-29T00:06:07.616Z,52.37
2022-11-29T00:08:34.713Z,46.27
2022-11-29T00:11:14.074Z,52.27
2022-11-29T00:13:41.076Z,55.23
2022-11-29T00:16:10.132Z,48.57
2022-11-29T00:18:37.307Z,48.50
2022-11-29T00:21:08.304Z,57.00
2022-11-29T00:23:35.769Z,53.70
2022-11-29T00:26:06.981Z,53.07
2022-11-29T00:28:35.016Z,45.97
2022-11-29T00:31:01.968Z,49.17
2022-11-29T00:33:29.308Z,47.23
2022-11-29T00:35:56.503Z,46.97
2022-11-29T00:38:23.596Z,50.90
2022-11-29T00:40:51.883Z,52.53
2022-11-29T00:43:18.700Z,50.87
2022-11-29T00:45:45.675Z,54.33
2022-11-29T00:48:13.000Z,47.30
2022-11-29T00:50:39.892Z,50.83
2022-11-29T00:53:06.931Z,48.87
2022-11-29T00:55:33.837Z,50.43
2022-11-29T00:58:00.612Z,47.87
2022-11-29T01:00:27.429Z,52.07
2022-11-29T01:02:54.278Z,50.87
2022-11-29T01:05:21.127Z,50.57
2022-11-29T01:07:47.960Z,47.20
2022-11-29T01:10:14.882Z,49.70
2022-11-29T01:12:41.643Z,49.60
2022-11-29T01:15:09.480Z,52.63
2022-11-29T01:17:38.374Z,50.87
2022-11-29T01:20:08.653Z,49.43
2022-11-29T01:22:35.987Z,53.10
2022-11-29T01:25:04.251Z,53.67
2022-11-29T01:27:31.045Z,51.40
2022-11-29T01:29:57.862Z,50.90
2022-11-29T01:32:24.655Z,49.63
2022-11-29T01:34:51.649Z,49.83
2022-11-29T01:37:18.533Z,65.73
2022-11-29T01:39:45.306Z,51.80
2022-11-29T01:42:13.166Z,53.23
2022-11-29T01:44:39.850Z,50.53
2022-11-29T01:47:06.682Z,51.17
2022-11-29T01:49:43.157Z,57.10
2022-11-29T01:52:12.808Z,57.23
2022-11-29T01:54:42.919Z,54.33
2022-11-29T01:57:10.455Z,53.83
2022-11-29T01:59:42.046Z,55.00
2022-11-29T02:02:17.259Z,53.33
2022-11-29T02:04:45.923Z,50.90
2022-11-29T02:07:13.026Z,49.83
2022-11-29T02:09:39.837Z,51.77
2022-11-29T02:12:15.767Z,58.90
2022-11-29T02:15:08.075Z,60.47
2022-11-29T02:17:52.515Z,55.37
2022-11-29T02:20:34.473Z,56.30
2022-11-29T02:23:33.480Z,57.93
2022-11-29T02:26:03.482Z,48.83
2022-11-29T02:28:56.494Z,55.80
2022-11-29T02:31:29.550Z,56.23
2022-11-29T02:34:30.408Z,52.30
2022-11-29T02:37:34.926Z,56.37
2022-11-29T02:40:04.675Z,51.03
2022-11-29T02:43:06.509Z,50.93
2022-11-29T02:45:40.821Z,54.67
2022-11-29T02:51:24.996Z,53.65
2022-11-29T02:53:57.453Z,50.30
2022-11-29T02:57:12.426Z,49.30
2022-11-29T02:59:47.919Z,51.25
2022-11-29T03:02:40.827Z,54.70
2022-11-29T03:05:18.669Z,51.90
2022-11-29T03:08:03.973Z,52.83
2022-11-29T03:10:39.276Z,52.67
2022-11-29T03:13:15.142Z,53.70
2022-11-29T03:15:52.968Z,52.90
2022-11-29T03:18:28.656Z,48.53
2022-11-29T03:21:07.777Z,52.20
2022-11-29T03:23:39.560Z,55.60
2022-11-29T03:26:37.927Z,49.90
2022-11-29T03:29:36.353Z,49.57
2022-11-29T03:32:15.053Z,52.63
2022-11-29T03:35:16.284Z,50.07
2022-11-29T03:37:46.345Z,45.70
2022-11-29T03:40:15.940Z,42.93
2022-11-29T03:43:00.118Z,53.90
2022-11-29T03:45:35.262Z,51.20
2022-11-29T03:48:07.700Z,49.73
2022-11-29T03:50:48.520Z,48.20
2022-11-29T03:53:22.999Z,54.97
2022-11-29T03:55:54.061Z,54.63
2022-11-29T03:58:39.516Z,56.47
2022-11-29T04:01:29.266Z,50.47
2022-11-29T04:04:41.220Z,56.13
2022-11-29T04:07:19.581Z,54.07
2022-11-29T04:10:19.888Z,51.77
2022-11-29T04:13:43.573Z,51.67
2022-11-29T04:16:37.063Z,48.33
2022-11-29T04:19:28.081Z,59.40
2022-11-29T04:22:23.660Z,53.97
2022-11-29T04:25:12.188Z,54.23
2022-11-29T04:28:01.280Z,55.60
2022-11-29T04:30:52.344Z,60.60
2022-11-29T04:33:40.661Z,49.50
2022-11-29T04:36:42.798Z,53.93
2022-11-29T04:39:39.899Z,50.10
2022-11-29T04:42:25.607Z,52.17
2022-11-29T04:45:08.172Z,49.73
2022-11-29T04:47:53.133Z,51.07
2022-11-29T04:50:47.865Z,52.17
2022-11-29T04:53:28.780Z,50.63
2022-11-29T04:56:11.116Z,54.23
2022-11-29T04:58:46.512Z,54.40
2022-11-29T05:01:21.995Z,52.70
2022-11-29T05:04:02.635Z,51.20
2022-11-29T05:06:38.874Z,54.97
2022-11-29T05:09:30.062Z,49.80
2022-11-29T05:12:39.011Z,56.00
2022-11-29T05:15:14.839Z,56.97
2022-11-29T05:17:53.049Z,52.03
2022-11-29T05:21:11.216Z,52.07
2022-11-29T05:24:18.052Z,50.90
2022-11-29T05:26:54.142Z,55.20
2022-11-29T05:29:31.338Z,51.27
2022-11-29T05:32:19.790Z,50.40
2022-11-29T05:35:07.884Z,50.73
2022-11-29T05:37:54.009Z,54.87
2022-11-29T05:40:43.781Z,51.23
2022-11-29T05:43:35.953Z,49.77
2022-11-29T05:46:25.966Z,52.93
2022-11-29T05:49:12.945Z,50.50
2022-11-29T05:51:58.580Z,54.13
2022-11-29T05:54:37.001Z,47.10
2022-11-29T05:57:22.076Z,49.03
2022-11-29T05:59:51.170Z,49.67
2022-11-29T06:02:32.846Z,48.53
2022-11-29T06:05:15.003Z,54.27
2022-11-29T06:08:05.424Z,53.53
2022-11-29T06:10:36.171Z,47.50
2022-11-29T06:13:15.431Z,57.10
2022-11-29T06:16:03.444Z,52.57
2022-11-29T06:18:37.365Z,47.60
2022-11-29T06:21:17.339Z,46.55
2022-11-29T06:23:58.629Z,53.77
2022-11-29T06:26:44.876Z,59.07
2022-11-29T06:29:33.290Z,52.60
2022-11-29T06:32:27.157Z,50.57
2022-11-29T06:35:09.350Z,49.37
2022-11-29T06:37:42.813Z,50.33
2022-11-29T06:40:12.061Z,55.95
2022-11-29T06:42:39.033Z,50.90
2022-11-29T06:45:06.548Z,48.47
2022-11-29T06:47:44.377Z,49.83
2022-11-29T06:50:32.567Z,53.50
2022-11-29T06:53:23.382Z,52.00
2022-11-29T06:56:03.330Z,53.03
2022-11-29T06:58:51.517Z,50.73
2022-11-29T07:01:40.052Z,48.97
2022-11-29T07:04:28.944Z,49.70
2022-11-29T07:06:56.444Z,50.93
2022-11-29T07:09:28.650Z,46.30
2022-11-29T07:11:55.860Z,50.50
2022-11-29T07:14:22.999Z,46.73
2022-11-29T07:17:12.393Z,46.70
2022-11-29T07:19:58.309Z,50.13
2022-11-29T07:22:47.428Z,53.73
2022-11-29T07:25:36.017Z,52.20
2022-11-29T07:28:21.925Z,49.73
2022-11-29T07:30:55.279Z,49.90
2022-11-29T07:33:55.276Z,50.70
2022-11-29T07:36:45.803Z,48.17
2022-11-29T07:39:36.309Z,51.07
2022-11-29T07:42:30.391Z,52.97
2022-11-29T07:45:03.354Z,55.10
2022-11-29T07:47:35.474Z,52.93
2022-11-29T07:50:03.539Z,54.27
2022-11-29T07:52:30.420Z,47.17
2022-11-29T07:54:57.255Z,53.40
2022-11-29T07:57:24.070Z,49.97
2022-11-29T07:59:50.835Z,49.13
2022-11-29T08:02:31.141Z,52.23
2022-11-29T08:04:58.252Z,52.13
2022-11-29T08:07:25.286Z,53.47
2022-11-29T08:09:52.168Z,58.17
2022-11-29T08:12:19.140Z,49.40
2022-11-29T08:14:46.127Z,54.37
2022-11-29T08:17:13.220Z,55.37
2022-11-29T08:19:40.105Z,55.70
2022-11-29T08:22:06.956Z,52.90
2022-11-29T08:24:33.781Z,57.97
2022-11-29T08:27:00.638Z,52.00
2022-11-29T08:29:27.533Z,50.80
2022-11-29T08:31:54.454Z,53.60
2022-11-29T08:34:22.196Z,53.00
2022-11-29T08:36:49.758Z,55.10
2022-11-29T08:39:17.176Z,54.77
2022-11-29T08:41:44.010Z,54.03
2022-11-29T08:44:10.869Z,52.77
2022-11-29T08:46:56.341Z,50.20
2022-11-29T08:49:23.120Z,54.33
2022-11-29T08:51:52.726Z,57.10
2022-11-29T08:54:19.508Z,51.90
2022-11-29T08:59:33.276Z,53.07
2022-11-29T09:02:00.198Z,58.93
2022-11-29T09:04:27.082Z,51.00
2022-11-29T09:06:53.900Z,52.30
2022-11-29T09:09:20.718Z,55.07
2022-11-29T09:11:49.536Z,50.17
2022-11-29T09:14:17.241Z,46.90
2022-11-29T09:16:44.172Z,50.37
2022-11-29T09:19:13.928Z,50.33
2022-11-29T09:21:40.797Z,52.67
2022-11-29T09:24:08.012Z,46.37
2022-11-29T09:26:36.825Z,52.00
2022-11-29T09:29:05.591Z,48.83
2022-11-29T09:31:33.055Z,50.13
2022-11-29T09:33:59.942Z,51.93
2022-11-29T09:36:29.235Z,47.13
2022-11-29T09:39:02.629Z,46.90
2022-11-29T09:41:42.959Z,50.67
2022-11-29T09:44:22.541Z,44.00
2022-11-29T09:46:58.556Z,46.27
2022-11-29T09:49:48.575Z,48.30
2022-11-29T09:52:31.416Z,55.23
2022-11-29T09:55:34.491Z,45.83
2022-11-29T09:58:04.057Z,52.77
2022-11-29T10:00:32.829Z,47.47
2022-11-29T10:03:03.793Z,49.27
2022-11-29T10:05:47.426Z,50.00
2022-11-29T10:08:19.663Z,51.10
2022-11-29T10:10:48.098Z,48.30
2022-11-29T10:13:20.153Z,49.40
2022-11-29T10:15:49.047Z,48.03
2022-11-29T10:18:21.076Z,48.30
2022-11-29T10:20:50.359Z,47.40
2022-11-29T10:23:23.223Z,49.50
2022-11-29T10:25:52.625Z,49.03
2022-11-29T10:28:21.604Z,46.77
2022-11-29T10:30:49.168Z,44.57
2022-11-29T10:33:23.437Z,56.67
2022-11-29T10:38:32.809Z,66.27
2022-11-29T10:41:09.407Z,53.07
2022-11-29T10:43:37.447Z,49.20
2022-11-29T10:46:04.984Z,50.90
2022-11-29T10:48:34.069Z,53.87
2022-11-29T10:51:01.543Z,52.40
2022-11-29T10:53:33.192Z,52.17
2022-11-29T10:56:09.401Z,53.27
2022-11-29T10:58:36.655Z,51.47
2022-11-29T11:01:06.898Z,48.93
2022-11-29T11:03:52.943Z,48.20
2022-11-29T11:06:26.918Z,49.17
2022-11-29T11:08:56.434Z,51.78
2022-11-29T11:11:33.374Z,50.80
2022-11-29T11:14:24.540Z,49.63
2022-11-29T11:16:54.708Z,55.47
2022-11-29T11:19:32.690Z,47.57
2022-11-29T11:22:01.477Z,56.27
2022-11-29T11:24:30.707Z,47.90
2022-11-29T11:26:58.161Z,50.33
2022-11-29T11:29:32.202Z,49.07
2022-11-29T11:31:59.772Z,49.70
2022-11-29T11:34:31.720Z,98.23
2022-11-29T11:37:21.939Z,51.23
2022-11-29T11:39:51.429Z,56.33
2022-11-29T11:42:38.001Z,53.57
2022-11-29T11:45:10.707Z,48.40
2022-11-29T11:47:49.719Z,54.03
2022-11-29T11:50:52.266Z,56.30
2022-11-29T11:53:22.258Z,55.13
2022-11-29T11:56:05.768Z,47.70
2022-11-29T11:58:36.197Z,49.20
2022-11-29T12:01:12.292Z,51.30
2022-11-29T12:03:56.921Z,50.67
2022-11-29T12:06:46.429Z,50.83
2022-11-29T12:09:41.636Z,58.47
2022-11-29T12:12:27.261Z,54.30
2022-11-29T12:15:05.473Z,47.63
2022-11-29T12:17:44.244Z,51.23
2022-11-29T12:20:39.976Z,47.23
2022-11-29T12:23:12.715Z,55.83
2022-11-29T12:25:44.542Z,48.47
2022-11-29T12:28:18.632Z,50.03
2022-11-29T12:30:56.994Z,48.57
2022-11-29T12:33:47.799Z,49.80
2022-11-29T12:36:32.983Z,47.97
2022-11-29T12:39:14.537Z,45.40
2022-11-29T12:41:56.573Z,42.97
2022-11-29T12:44:56.912Z,49.13
2022-11-29T12:47:59.164Z,49.37
2022-11-29T12:50:31.677Z,51.73
2022-11-29T12:53:37.013Z,45.07
2022-11-29T12:58:55.862Z,47.40
2022-11-29T13:01:51.226Z,46.63
2022-11-29T13:04:46.444Z,48.50
2022-11-29T13:07:32.048Z,47.43
2022-11-29T13:10:27.574Z,45.30
2022-11-29T13:12:58.432Z,47.73
2022-11-29T13:15:35.770Z,49.93
2022-11-29T13:18:11.225Z,48.00
2022-11-29T13:20:44.935Z,48.13
2022-11-29T13:23:39.195Z,44.88
2022-11-29T13:26:12.843Z,46.00
2022-11-29T13:28:42.149Z,46.43
2022-11-29T13:31:21.860Z,43.83
2022-11-29T13:34:04.401Z,45.00
2022-11-29T13:36:59.731Z,49.27
2022-11-29T13:39:55.295Z,46.47
2022-11-29T13:42:45.417Z,43.73
2022-11-29T13:45:33.898Z,51.00
2022-11-29T13:48:01.939Z,46.50
2022-11-29T13:50:39.060Z,46.97
2022-11-29T13:53:13.627Z,48.63
2022-11-29T13:55:46.157Z,46.00
2022-11-29T13:58:17.879Z,44.60
2022-11-29T14:00:44.955Z,48.63
2022-11-29T14:03:29.293Z,45.73
2022-11-29T14:06:02.308Z,47.25
2022-11-29T14:08:55.140Z,43.47
2022-11-29T14:11:29.052Z,46.63
2022-11-29T14:14:09.046Z,47.23
2022-11-29T14:16:47.118Z,45.13
2022-11-29T14:19:21.584Z,46.50
2022-11-29T14:22:06.378Z,44.40
2022-11-29T14:24:36.088Z,47.57
2022-11-29T14:27:07.321Z,45.93
2022-11-29T14:29:49.601Z,50.80
2022-11-29T14:32:27.988Z,43.67
2022-11-29T14:35:20.385Z,48.47
2022-11-29T14:38:10.635Z,47.70
2022-11-29T14:40:40.292Z,57.50
2022-11-29T14:43:30.063Z,47.50
2022-11-29T14:46:15.033Z,50.73
2022-11-29T14:48:45.237Z,47.43
2022-11-29T14:51:19.441Z,47.13
2022-11-29T14:53:48.197Z,47.20
2022-11-29T14:56:35.220Z,49.03
2022-11-29T14:59:39.942Z,46.67
2022-11-29T15:02:07.837Z,83.28
2022-11-29T15:04:35.915Z,53.13
2022-11-29T15:07:03.179Z,57.43
2022-11-29T15:09:32.210Z,69.07
2022-11-29T15:12:02.791Z,64.67
2022-11-29T15:14:38.007Z,52.17
2022-11-29T15:17:11.730Z,54.23
2022-11-29T15:19:57.561Z,52.88
2022-11-29T15:22:42.845Z,51.47
2022-11-29T15:25:16.267Z,53.60
2022-11-29T15:27:53.541Z,55.75
2022-11-29T15:30:40.604Z,53.83
2022-11-29T15:33:18.148Z,52.57
2022-11-29T15:35:49.935Z,47.03
2022-11-29T15:38:18.152Z,54.20
2022-11-29T15:40:52.781Z,60.27
2022-11-29T15:43:22.903Z,55.27
2022-11-29T15:45:51.640Z,54.13
2022-11-29T15:48:20.414Z,55.10
2022-11-29T15:51:02.470Z,53.10
2022-11-29T15:53:31.431Z,57.47
2022-11-29T15:55:59.291Z,54.83
2022-11-29T15:58:28.038Z,55.13
2022-11-29T16:00:55.258Z,64.50
2022-11-29T16:03:26.211Z,64.57
2022-11-29T16:06:00.232Z,57.27
2022-11-29T16:08:30.917Z,49.55
2022-11-29T16:10:59.028Z,58.33
2022-11-29T16:13:25.810Z,55.53
2022-11-29T16:16:15.598Z,61.73
2022-11-29T16:18:44.697Z,57.73
2022-11-29T16:21:25.429Z,58.23
2022-11-29T16:23:52.705Z,64.43
2022-11-29T16:26:30.769Z,71.23
2022-11-29T16:28:58.049Z,59.07
2022-11-29T16:31:32.402Z,63.23
2022-11-29T16:36:32.359Z,53.93
2022-11-29T16:39:05.623Z,65.33
2022-11-29T16:41:37.360Z,61.63
2022-11-29T16:44:06.371Z,59.57
2022-11-29T16:46:36.030Z,62.03
2022-11-29T16:49:35.937Z,60.50
2022-11-29T16:52:03.955Z,77.67
2022-11-29T16:54:34.251Z,71.23
2022-11-29T16:57:06.332Z,63.03
2022-11-29T16:59:35.192Z,70.37
2022-11-29T17:02:02.147Z,60.23
2022-11-29T17:04:29.081Z,64.37
2022-11-29T17:06:56.794Z,64.53
2022-11-29T17:09:26.588Z,61.67
2022-11-29T17:11:54.293Z,68.37
2022-11-29T17:14:21.122Z,70.33
2022-11-29T17:16:52.031Z,64.30
2022-11-29T17:19:24.207Z,66.53
2022-11-29T17:21:52.012Z,60.73
2022-11-29T17:24:20.331Z,67.50
2022-11-29T17:26:47.166Z,70.07
2022-11-29T17:29:15.490Z,70.93
2022-11-29T17:31:46.368Z,64.10
2022-11-29T17:34:13.329Z,69.83
2022-11-29T17:36:40.916Z,69.90
2022-11-29T17:39:08.249Z,73.93
2022-11-29T17:41:35.229Z,66.60
2022-11-29T17:44:02.487Z,64.57
2022-11-29T17:46:31.808Z,75.00
2022-11-29T17:48:59.908Z,75.40
2022-11-29T17:54:14.524Z,71.47
2022-11-29T17:56:41.312Z,69.67
2022-11-29T17:59:08.173Z,71.00
2022-11-29T18:01:36.143Z,66.33
2022-11-29T18:04:04.721Z,67.40
2022-11-29T18:06:35.114Z,68.93
2022-11-29T18:09:02.784Z,73.47
2022-11-29T18:11:30.914Z,74.40
2022-11-29T18:13:58.482Z,73.83
2022-11-29T18:16:33.015Z,76.30
2022-11-29T18:19:09.262Z,71.83
2022-11-29T18:21:36.754Z,73.50
2022-11-29T18:24:05.074Z,78.57
2022-11-29T18:26:33.082Z,71.93
2022-11-29T18:29:00.415Z,75.20
2022-11-29T18:31:29.847Z,74.17
2022-11-29T18:33:58.693Z,70.70
2022-11-29T18:36:35.051Z,72.77
2022-11-29T18:39:05.517Z,72.97
2022-11-29T18:41:32.496Z,74.87
2022-11-29T18:44:02.099Z,80.90
2022-11-29T18:46:32.362Z,79.37
2022-11-29T18:49:01.106Z,77.37
2022-11-29T18:51:29.529Z,78.90
2022-11-29T18:53:57.322Z,76.33
2022-11-29T18:56:26.487Z,76.57
2022-11-29T18:59:01.188Z,74.80
2022-11-29T19:01:30.369Z,81.47
2022-11-29T19:03:58.716Z,73.00
2022-11-29T19:06:27.741Z,78.20
2022-11-29T19:08:54.784Z,77.30
2022-11-29T19:11:23.351Z,71.67
2022-11-29T19:13:59.812Z,79.90
2022-11-29T19:16:28.760Z,75.07
2022-11-29T19:18:57.313Z,77.97
2022-11-29T19:21:25.018Z,81.83
2022-11-29T19:23:57.055Z,73.33
2022-11-29T19:26:25.315Z,76.07
2022-11-29T19:28:52.455Z,77.30
2022-11-29T19:31:20.828Z,92.57
2022-11-29T19:33:47.720Z,86.53
2022-11-29T19:36:17.182Z,80.57
2022-11-29T19:38:48.799Z,84.07
2022-11-29T19:41:23.640Z,80.57
2022-11-29T19:43:50.667Z,90.63
2022-11-29T19:46:26.491Z,81.27
2022-11-29T19:48:54.889Z,88.23
2022-11-29T19:51:22.826Z,81.40
2022-11-29T19:53:53.501Z,82.10
2022-11-29T19:56:21.112Z,85.07
2022-11-29T19:58:47.982Z,87.80
2022-11-29T20:01:17.488Z,89.67
2022-11-29T20:03:47.850Z,89.53
2022-11-29T20:06:16.089Z,91.00
2022-11-29T20:08:43.211Z,84.17
2022-11-29T20:11:13.095Z,77.97
2022-11-29T20:13:41.040Z,91.03
2022-11-29T20:16:10.374Z,94.33
2022-11-29T20:18:39.645Z,82.70
2022-11-29T20:21:13.056Z,89.63
2022-11-29T20:23:41.020Z,86.97
2022-11-29T20:26:15.127Z,90.27
2022-11-29T20:28:42.735Z,85.30
2022-11-29T20:31:15.622Z,90.57
2022-11-29T20:33:44.192Z,85.23
2022-11-29T20:36:32.324Z,83.00
2022-11-29T20:39:10.757Z,94.17
2022-11-29T20:41:51.092Z,92.60
2022-11-29T20:44:26.525Z,87.50
2022-11-29T20:46:53.623Z,84.70
2022-11-29T20:49:20.772Z,87.97
2022-11-29T20:51:55.942Z,86.67
2022-11-29T20:54:23.119Z,90.63
2022-11-29T20:56:49.909Z,90.73
2022-11-29T20:59:16.784Z,88.47
2022-11-29T21:01:43.664Z,89.77
2022-11-29T21:04:10.549Z,88.50
2022-11-29T21:06:40.465Z,87.70
2022-11-29T21:09:16.705Z,96.77
2022-11-29T21:11:50.464Z,95.90
2022-11-29T21:14:22.691Z,83.78
2022-11-29T21:16:53.303Z,85.97
2022-11-29T21:19:25.910Z,87.57
2022-11-29T21:22:15.046Z,85.80
2022-11-29T21:25:09.047Z,84.13
2022-11-29T21:30:21.768Z,81.47
2022-11-29T21:32:50.799Z,84.47
2022-11-29T21:35:20.515Z,86.00
2022-11-29T21:37:48.343Z,85.90
2022-11-29T21:40:18.145Z,87.93
2022-11-29T21:42:46.602Z,85.97
2022-11-29T21:45:16.286Z,83.80
2022-11-29T21:47:46.474Z,85.07
2022-11-29T21:50:13.489Z,85.63
2022-11-29T21:52:46.737Z,90.00
2022-11-29T21:55:14.232Z,88.60
2022-11-29T21:57:47.949Z,89.63
2022-11-29T22:00:16.754Z,86.97
2022-11-29T22:02:47.661Z,85.73
2022-11-29T22:05:20.949Z,90.00
2022-11-29T22:07:54.904Z,88.40
2022-11-29T22:10:30.578Z,82.63
2022-11-29T22:12:59.812Z,85.43
2022-11-29T22:18:25.245Z,85.50
2022-11-29T22:21:03.824Z,89.85
2022-11-29T22:23:47.093Z,90.67
2022-11-29T22:26:27.443Z,88.57
2022-11-29T22:29:01.579Z,93.37
2022-11-29T22:31:34.460Z,84.67
2022-11-29T22:34:01.597Z,87.33
2022-11-29T22:36:28.962Z,87.73
2022-11-29T22:39:01.973Z,82.07
2022-11-29T22:41:35.232Z,87.80
2022-11-29T22:44:06.621Z,89.50
2022-11-29T22:46:37.842Z,89.20
2022-11-29T22:49:13.141Z,90.40
2022-11-29T22:51:42.176Z,84.80
2022-11-29T22:54:11.950Z,86.43
2022-11-29T22:56:47.213Z,89.50
2022-11-29T22:59:19.603Z,86.13
2022-11-29T23:02:02.117Z,88.17
2022-11-29T23:04:45.003Z,80.73
2022-11-29T23:07:21.709Z,87.77
2022-11-29T23:09:51.893Z,83.17
2022-11-29T23:12:25.392Z,84.20
2022-11-29T23:14:56.346Z,86.32
2022-11-29T23:17:23.793Z,90.00
2022-11-29T23:19:50.587Z,94.27
2022-11-29T23:22:17.368Z,79.63
2022-11-29T23:24:46.663Z,85.57
2022-11-29T23:27:13.622Z,86.70
2022-11-29T23:29:40.469Z,79.70
2022-11-29T23:32:07.404Z,82.83
2022-11-29T23:34:34.405Z,83.03
2022-11-29T23:37:01.205Z,88.63
2022-11-29T23:39:28.067Z,85.23
2022-11-29T23:41:54.865Z,91.07
2022-11-29T23:44:22.000Z,84.27
2022-11-29T23:46:48.795Z,89.93
2022-11-29T23:49:15.649Z,90.43
2022-11-29T23:51:42.465Z,87.20
2022-11-29T23:54:09.983Z,81.47
2022-11-29T23:56:37.652Z,90.27
2022-11-29T23:59:04.524Z,85.20
